createdAt,value
2017-11-03T00:10:12.369Z,10.80
2017-11-03T00:15:15.757Z,10.80
2017-11-03T00:20:19.031Z,10.80
2017-11-03T00:25:21.961Z,10.80
2017-11-03T00:30:25.107Z,10.70
2017-11-03T00:35:28.229Z,10.70
2017-11-03T00:40:32.747Z,10.70
2017-11-03T00:45:36.519Z,10.60
2017-11-03T00:50:39.945Z,10.60
2017-11-03T00:55:43.254Z,10.60
2017-11-03T01:00:47.569Z,10.60
2017-11-03T01:05:52.076Z,10.60
2017-11-03T01:10:56.953Z,10.50
2017-11-03T01:16:01.390Z,10.50
2017-11-03T01:21:04.944Z,10.50
2017-11-03T01:26:08.177Z,10.50
2017-11-03T01:31:12.706Z,10.50
2017-11-03T01:36:15.516Z,10.50
2017-11-03T01:41:19.038Z,10.50
2017-11-03T01:46:23.890Z,10.50
2017-11-03T01:51:27.620Z,10.40
2017-11-03T01:56:31.164Z,10.40
2017-11-03T02:01:35.601Z,10.40
2017-11-03T02:06:39.216Z,10.40
2017-11-03T02:16:53.499Z,10.40
2017-11-03T02:21:56.527Z,10.40
2017-11-03T02:26:59.655Z,10.40
2017-11-03T02:32:04.260Z,10.30
2017-11-03T02:37:07.153Z,10.30
2017-11-03T02:42:11.639Z,10.30
2017-11-03T02:47:15.110Z,10.30
2017-11-03T02:52:21.218Z,10.30
2017-11-03T02:57:24.026Z,10.30
2017-11-03T03:02:27.000Z,10.30
2017-11-03T03:07:31.508Z,10.20
2017-11-03T03:12:34.270Z,10.20
2017-11-03T03:17:37.057Z,10.20
2017-11-03T03:27:48.393Z,10.20
2017-11-03T03:32:51.275Z,10.20
2017-11-03T03:37:55.571Z,10.10
2017-11-03T03:43:00.365Z,10.10
2017-11-03T03:48:05.023Z,10.10
2017-11-03T03:53:07.905Z,10.10
2017-11-03T03:58:11.633Z,10.10
2017-11-03T04:03:16.015Z,10.10
2017-11-03T04:08:21.008Z,10.10
2017-11-03T04:13:27.523Z,10.10
2017-11-03T04:18:31.043Z,10.00
2017-11-03T04:23:34.550Z,10.00
2017-11-03T04:28:38.460Z,10.00
2017-11-03T04:33:44.972Z,10.00
2017-11-03T04:38:48.097Z,10.00
2017-11-03T04:43:51.687Z,9.90
2017-11-03T04:48:54.511Z,9.90
2017-11-03T04:53:57.551Z,9.90
2017-11-03T04:59:00.409Z,9.90
2017-11-03T05:04:06.522Z,9.90
2017-11-03T05:09:09.750Z,9.90
2017-11-03T05:14:12.837Z,9.80
2017-11-03T05:19:16.306Z,9.80
2017-11-03T05:24:20.234Z,9.80
2017-11-03T05:29:24.675Z,9.80
2017-11-03T05:39:34.691Z,9.70
2017-11-03T05:44:38.119Z,9.70
2017-11-03T05:49:41.786Z,9.70
2017-11-03T05:54:44.580Z,9.70
2017-11-03T05:59:47.335Z,9.60
2017-11-03T06:04:50.834Z,9.60
2017-11-03T06:09:55.098Z,9.60
2017-11-03T06:14:58.499Z,9.60
2017-11-03T06:20:02.803Z,9.60
2017-11-03T06:25:06.414Z,9.50
2017-11-03T06:30:10.141Z,9.50
2017-11-03T06:35:14.572Z,9.50
2017-11-03T06:40:18.544Z,9.50
2017-11-03T06:45:22.982Z,9.50
2017-11-03T06:50:25.724Z,9.50
2017-11-03T06:55:29.212Z,9.50
2017-11-03T07:00:32.748Z,9.50
2017-11-03T07:05:37.112Z,9.50
2017-11-03T07:10:40.079Z,9.50
2017-11-03T07:15:43.469Z,9.50
2017-11-03T07:20:50.028Z,9.50
2017-11-03T07:25:54.443Z,9.50
2017-11-03T07:30:57.447Z,9.50
2017-11-03T07:36:00.304Z,9.50
2017-11-03T07:41:04.691Z,9.60
2017-11-03T07:46:07.670Z,9.60
2017-11-03T07:51:11.364Z,9.60
2017-11-03T07:56:14.366Z,9.70
2017-11-03T08:01:17.948Z,9.70
2017-11-03T08:06:21.321Z,9.70
2017-11-03T08:11:24.427Z,9.80
2017-11-03T08:16:27.452Z,9.80
2017-11-03T08:21:30.365Z,9.80
2017-11-03T08:26:33.329Z,9.90
2017-11-03T08:31:39.776Z,9.90
2017-11-03T08:36:42.561Z,10.00
2017-11-03T08:41:45.744Z,10.10
2017-11-03T08:46:48.912Z,10.20
2017-11-03T08:51:53.261Z,10.30
2017-11-03T08:56:56.759Z,10.40
2017-11-03T09:02:00.379Z,10.70
2017-11-03T09:07:04.841Z,10.70
2017-11-03T09:12:08.285Z,10.80
2017-11-03T09:17:12.684Z,10.90
2017-11-03T09:22:18.656Z,11.00
2017-11-03T09:27:21.468Z,11.10
2017-11-03T09:32:24.557Z,11.30
2017-11-03T09:37:28.857Z,11.30
2017-11-03T09:42:32.124Z,11.50
2017-11-03T09:47:35.051Z,11.60
2017-11-03T09:52:38.496Z,11.70
2017-11-03T09:57:41.657Z,11.80
2017-11-03T10:02:44.220Z,11.90
2017-11-03T10:07:46.815Z,12.00
2017-11-03T10:12:49.390Z,12.20
2017-11-03T10:17:51.982Z,12.20
2017-11-03T10:22:54.595Z,12.40
2017-11-03T10:27:57.171Z,12.40
2017-11-03T10:33:00.519Z,12.60
2017-11-03T10:38:03.883Z,12.70
2017-11-03T10:43:06.437Z,12.70
2017-11-03T10:48:09.020Z,12.80
2017-11-03T10:53:12.374Z,13.20
2017-11-03T10:58:14.963Z,13.10
2017-11-03T11:03:17.539Z,13.40
2017-11-03T11:08:20.112Z,13.40
2017-11-03T11:13:22.679Z,13.70
2017-11-03T11:18:25.259Z,13.80
2017-11-03T11:23:27.860Z,14.00
2017-11-03T11:28:30.462Z,14.10
2017-11-03T11:33:33.804Z,14.40
2017-11-03T11:38:36.399Z,14.40
2017-11-03T11:43:39.064Z,14.60
2017-11-03T11:48:41.639Z,14.70
2017-11-03T11:53:44.572Z,14.90
2017-11-03T11:58:47.163Z,15.10
2017-11-03T12:03:49.775Z,15.20
2017-11-03T12:08:52.347Z,15.40
2017-11-03T12:13:54.923Z,15.60
2017-11-03T12:18:57.509Z,15.70
2017-11-03T12:24:00.068Z,15.80
2017-11-03T12:29:02.644Z,15.80
2017-11-03T12:34:05.250Z,16.00
2017-11-03T12:39:07.834Z,16.00
2017-11-03T12:44:10.412Z,15.90
2017-11-03T12:49:12.990Z,15.80
2017-11-03T12:54:15.575Z,15.80
2017-11-03T12:59:18.141Z,15.70
2017-11-03T13:04:20.704Z,15.60
2017-11-03T13:09:23.279Z,15.50
2017-11-03T13:14:25.886Z,15.40
2017-11-03T13:19:28.466Z,15.40
2017-11-03T13:24:31.041Z,15.50
2017-11-03T13:29:33.646Z,15.50
2017-11-03T13:34:36.228Z,15.50
2017-11-03T13:39:38.801Z,15.50
2017-11-03T13:44:41.351Z,15.60
2017-11-03T13:49:43.943Z,15.60
2017-11-03T13:54:46.535Z,15.60
2017-11-03T13:59:49.119Z,15.50
2017-11-03T14:04:51.682Z,15.50
2017-11-03T14:09:55.022Z,15.50
2017-11-03T14:14:57.599Z,15.50
2017-11-03T14:20:00.165Z,15.40
2017-11-03T14:25:02.743Z,15.30
2017-11-03T14:30:05.405Z,15.30
2017-11-03T14:35:07.984Z,15.20
2017-11-03T14:40:10.540Z,15.10
2017-11-03T14:45:13.107Z,15.00
2017-11-03T14:50:15.667Z,14.90
2017-11-03T14:55:18.516Z,14.80
2017-11-03T15:00:21.115Z,14.60
2017-11-03T15:05:23.692Z,14.50
2017-11-03T15:10:26.276Z,14.40
2017-11-03T15:15:28.843Z,14.20
2017-11-03T15:20:31.429Z,14.10
2017-11-03T15:25:34.758Z,13.80
2017-11-03T15:30:37.364Z,13.80
2017-11-03T15:35:39.979Z,13.70
2017-11-03T15:40:42.626Z,13.50
2017-11-03T15:45:45.215Z,13.40
2017-11-03T15:50:47.782Z,13.20
2017-11-03T15:55:50.359Z,13.10
2017-11-03T16:00:52.947Z,13.00
2017-11-03T16:05:55.560Z,12.80
2017-11-03T16:10:58.149Z,12.70
2017-11-03T16:16:00.723Z,12.60
2017-11-03T16:21:04.069Z,12.30
2017-11-03T16:26:07.407Z,12.20
2017-11-03T16:31:09.993Z,12.20
2017-11-03T16:36:12.599Z,12.00
2017-11-03T16:41:15.179Z,11.90
2017-11-03T16:46:17.808Z,11.80
2017-11-03T16:51:20.400Z,11.60
2017-11-03T16:56:22.988Z,11.50
2017-11-03T17:01:25.669Z,11.40
2017-11-03T17:06:28.246Z,11.20
2017-11-03T17:11:30.870Z,11.10
2017-11-03T17:16:33.427Z,11.00
2017-11-03T17:21:36.009Z,10.90
2017-11-03T17:26:38.591Z,10.70
2017-11-03T17:31:41.181Z,10.60
2017-11-03T17:36:43.784Z,10.50
2017-11-03T17:41:47.348Z,10.40
2017-11-03T17:46:49.937Z,10.30
2017-11-03T17:51:52.501Z,10.20
2017-11-03T17:56:55.065Z,10.10
2017-11-03T18:01:57.632Z,10.00
2017-11-03T18:07:00.230Z,9.90
2017-11-03T18:12:03.664Z,9.80
2017-11-03T18:17:06.221Z,9.70
2017-11-03T18:22:09.914Z,9.50
2017-11-03T18:27:12.501Z,9.50
2017-11-03T18:32:15.112Z,9.40
2017-11-03T18:37:17.704Z,9.40
2017-11-03T18:42:20.380Z,9.30
2017-11-03T18:47:22.956Z,9.20
2017-11-03T18:52:26.427Z,9.10
2017-11-03T18:57:29.059Z,9.00
2017-11-03T19:02:31.645Z,8.90
2017-11-03T19:07:34.287Z,8.80
2017-11-03T19:12:37.661Z,8.70
2017-11-03T19:17:40.285Z,8.70
2017-11-03T19:22:43.625Z,8.50
2017-11-03T19:27:46.191Z,8.50
2017-11-03T19:32:48.820Z,8.50
2017-11-03T19:37:52.702Z,8.30
2017-11-03T19:42:55.283Z,8.30
2017-11-03T19:47:57.866Z,8.20
2017-11-03T19:53:01.152Z,8.20
2017-11-03T19:58:03.796Z,8.10
2017-11-03T20:03:06.815Z,8.00
2017-11-03T20:08:10.349Z,8.00
2017-11-03T20:13:13.006Z,7.90
2017-11-03T20:18:15.587Z,7.90
2017-11-03T20:23:18.286Z,7.80
2017-11-03T20:28:20.896Z,7.70
2017-11-03T20:33:23.490Z,7.60
2017-11-03T20:38:26.072Z,7.60
2017-11-03T20:43:28.705Z,7.50
2017-11-03T20:48:31.305Z,7.40
2017-11-03T20:53:34.728Z,7.30
2017-11-03T20:58:37.370Z,7.30
2017-11-03T21:03:39.962Z,7.30
2017-11-03T21:08:42.665Z,7.20
2017-11-03T21:13:45.296Z,7.10
2017-11-03T21:18:47.890Z,7.10
2017-11-03T21:23:50.550Z,7.00
2017-11-03T21:28:53.163Z,7.00
2017-11-03T21:33:55.718Z,6.90
2017-11-03T21:38:58.276Z,6.80
2017-11-03T21:44:00.862Z,6.80
2017-11-03T21:49:03.430Z,6.70
2017-11-03T21:54:06.758Z,6.60
2017-11-03T21:59:10.120Z,6.50
2017-11-03T22:04:13.444Z,6.50
2017-11-03T22:09:16.036Z,6.40
2017-11-03T22:14:18.718Z,6.40
2017-11-03T22:19:21.309Z,6.40
2017-11-03T22:24:23.879Z,6.30
2017-11-03T22:29:26.444Z,6.20
2017-11-03T22:34:29.007Z,6.20
2017-11-03T22:39:31.573Z,6.10
2017-11-03T22:44:34.131Z,6.10
2017-11-03T22:49:36.704Z,6.00
2017-11-03T22:54:40.951Z,5.90
2017-11-03T22:59:43.529Z,5.90
2017-11-03T23:04:46.109Z,5.80
2017-11-03T23:09:48.660Z,5.80
2017-11-03T23:14:51.228Z,5.80
2017-11-03T23:19:54.569Z,5.60
2017-11-03T23:24:57.154Z,5.60
2017-11-03T23:30:00.476Z,5.50
2017-11-03T23:35:03.038Z,5.50
2017-11-03T23:40:05.627Z,5.50
2017-11-03T23:45:09.047Z,5.40
2017-11-03T23:50:11.636Z,5.40
2017-11-03T23:55:14.217Z,5.30
